sensor_id;sensor_type;location;lat;lon;timestamp;temperature;humidity
11617;DHT22;5864;52.998;9.068;2023-11-21T00:00:49;9.50;99.90
11617;DHT22;5864;52.998;9.068;2023-11-21T00:03:35;9.50;99.90
11617;DHT22;5864;52.998;9.068;2023-11-21T00:06:21;9.50;99.90
11617;DHT22;5864;52.998;9.068;2023-11-21T00:09:08;9.50;99.90
11617;DHT22;5864;52.998;9.068;2023-11-21T00:11:57;9.50;99.90
11617;DHT22;5864;52.998;9.068;2023-11-21T00:14:43;9.50;99.90
11617;DHT22;5864;52.998;9.068;2023-11-21T00:17:29;9.50;99.90
11617;DHT22;5864;52.998;9.068;2023-11-21T00:20:14;9.50;99.90
11617;DHT22;5864;52.998;9.068;2023-11-21T00:23:00;9.50;99.90
11617;DHT22;5864;52.998;9.068;2023-11-21T00:25:48;9.50;99.90
11617;DHT22;5864;52.998;9.068;2023-11-21T00:28:34;9.50;99.90
11617;DHT22;5864;52.998;9.068;2023-11-21T00:31:20;9.50;99.90
11617;DHT22;5864;52.998;9.068;2023-11-21T00:34:05;9.90;99.90
11617;DHT22;5864;52.998;9.068;2023-11-21T00:36:51;10.30;99.90
11617;DHT22;5864;52.998;9.068;2023-11-21T00:39:37;9.50;99.90
11617;DHT22;5864;52.998;9.068;2023-11-21T00:42:24;9.40;99.90
11617;DHT22;5864;52.998;9.068;2023-11-21T00:45:10;9.50;99.90
11617;DHT22;5864;52.998;9.068;2023-11-21T00:47:56;9.40;99.90
11617;DHT22;5864;52.998;9.068;2023-11-21T00:50:42;9.50;99.90
11617;DHT22;5864;52.998;9.068;2023-11-21T00:53:28;9.50;99.90
11617;DHT22;5864;52.998;9.068;2023-11-21T00:56:14;9.50;99.90
11617;DHT22;5864;52.998;9.068;2023-11-21T00:59:01;9.50;99.90
11617;DHT22;5864;52.998;9.068;2023-11-21T01:01:47;9.50;99.90
11617;DHT22;5864;52.998;9.068;2023-11-21T01:04:33;9.50;99.90
11617;DHT22;5864;52.998;9.068;2023-11-21T01:07:18;9.50;99.90
11617;DHT22;5864;52.998;9.068;2023-11-21T01:10:06;9.50;99.90
11617;DHT22;5864;52.998;9.068;2023-11-21T01:12:51;9.40;99.90
11617;DHT22;5864;52.998;9.068;2023-11-21T01:15:38;9.60;99.90
11617;DHT22;5864;52.998;9.068;2023-11-21T01:18:24;9.50;99.90
11617;DHT22;5864;52.998;9.068;2023-11-21T01:21:10;10.40;99.90
11617;DHT22;5864;52.998;9.068;2023-11-21T01:23:56;9.50;99.90
11617;DHT22;5864;52.998;9.068;2023-11-21T01:26:41;9.50;99.90
11617;DHT22;5864;52.998;9.068;2023-11-21T01:29:28;9.50;99.90
11617;DHT22;5864;52.998;9.068;2023-11-21T01:32:15;9.50;99.90
11617;DHT22;5864;52.998;9.068;2023-11-21T01:35:01;9.40;99.90
11617;DHT22;5864;52.998;9.068;2023-11-21T01:37:46;9.50;99.90
11617;DHT22;5864;52.998;9.068;2023-11-21T01:40:33;9.70;99.90
11617;DHT22;5864;52.998;9.068;2023-11-21T01:43:18;9.50;99.90
11617;DHT22;5864;52.998;9.068;2023-11-21T01:46:04;9.50;99.90
11617;DHT22;5864;52.998;9.068;2023-11-21T01:48:52;9.50;99.90
11617;DHT22;5864;52.998;9.068;2023-11-21T01:51:40;9.40;99.90
11617;DHT22;5864;52.998;9.068;2023-11-21T01:54:25;9.50;99.90
11617;DHT22;5864;52.998;9.068;2023-11-21T01:57:11;9.40;99.90
11617;DHT22;5864;52.998;9.068;2023-11-21T01:59:58;9.40;99.90
11617;DHT22;5864;52.998;9.068;2023-11-21T02:02:55;9.90;99.90
11617;DHT22;5864;52.998;9.068;2023-11-21T02:05:42;9.40;99.90
11617;DHT22;5864;52.998;9.068;2023-11-21T02:08:28;9.40;99.90
11617;DHT22;5864;52.998;9.068;2023-11-21T02:11:13;9.40;99.90
11617;DHT22;5864;52.998;9.068;2023-11-21T02:14:00;9.40;99.90
11617;DHT22;5864;52.998;9.068;2023-11-21T02:16:46;9.50;99.90
11617;DHT22;5864;52.998;9.068;2023-11-21T02:19:33;9.40;99.90
11617;DHT22;5864;52.998;9.068;2023-11-21T02:22:20;9.40;99.90
11617;DHT22;5864;52.998;9.068;2023-11-21T02:25:08;9.40;99.90
11617;DHT22;5864;52.998;9.068;2023-11-21T02:27:54;9.30;99.90
11617;DHT22;5864;52.998;9.068;2023-11-21T02:30:40;9.30;99.90
11617;DHT22;5864;52.998;9.068;2023-11-21T02:33:26;9.40;99.90
11617;DHT22;5864;52.998;9.068;2023-11-21T02:36:12;9.30;99.90
11617;DHT22;5864;52.998;9.068;2023-11-21T02:38:57;10.50;99.90
11617;DHT22;5864;52.998;9.068;2023-11-21T02:41:45;9.30;99.90
11617;DHT22;5864;52.998;9.068;2023-11-21T02:44:31;9.40;99.90
11617;DHT22;5864;52.998;9.068;2023-11-21T02:47:17;9.40;99.90
11617;DHT22;5864;52.998;9.068;2023-11-21T02:50:04;9.40;99.90
11617;DHT22;5864;52.998;9.068;2023-11-21T02:52:50;9.40;99.90
11617;DHT22;5864;52.998;9.068;2023-11-21T02:55:36;9.40;99.90
11617;DHT22;5864;52.998;9.068;2023-11-21T02:58:23;9.40;99.90
11617;DHT22;5864;52.998;9.068;2023-11-21T03:01:09;9.40;99.90
11617;DHT22;5864;52.998;9.068;2023-11-21T03:03:55;9.50;99.90
11617;DHT22;5864;52.998;9.068;2023-11-21T03:06:41;10.40;99.90
11617;DHT22;5864;52.998;9.068;2023-11-21T03:09:27;9.30;99.90
11617;DHT22;5864;52.998;9.068;2023-11-21T03:12:13;9.20;99.90
11617;DHT22;5864;52.998;9.068;2023-11-21T03:15:00;9.20;99.90
11617;DHT22;5864;52.998;9.068;2023-11-21T03:17:47;9.20;99.90
11617;DHT22;5864;52.998;9.068;2023-11-21T03:20:33;9.30;99.90
11617;DHT22;5864;52.998;9.068;2023-11-21T03:23:20;9.30;99.90
11617;DHT22;5864;52.998;9.068;2023-11-21T03:26:06;9.20;99.90
11617;DHT22;5864;52.998;9.068;2023-11-21T03:28:52;9.80;99.90
11617;DHT22;5864;52.998;9.068;2023-11-21T03:31:40;9.20;99.90
11617;DHT22;5864;52.998;9.068;2023-11-21T03:34:26;9.20;99.90
11617;DHT22;5864;52.998;9.068;2023-11-21T03:37:12;9.00;99.90
11617;DHT22;5864;52.998;9.068;2023-11-21T03:39:58;9.00;99.90
11617;DHT22;5864;52.998;9.068;2023-11-21T03:42:44;8.80;99.90
11617;DHT22;5864;52.998;9.068;2023-11-21T03:45:29;9.80;99.90
11617;DHT22;5864;52.998;9.068;2023-11-21T03:48:17;8.80;99.90
11617;DHT22;5864;52.998;9.068;2023-11-21T03:51:02;8.80;99.90
11617;DHT22;5864;52.998;9.068;2023-11-21T03:53:47;8.60;99.90
11617;DHT22;5864;52.998;9.068;2023-11-21T03:56:33;8.60;99.90
11617;DHT22;5864;52.998;9.068;2023-11-21T03:59:19;9.00;99.90
11617;DHT22;5864;52.998;9.068;2023-11-21T04:02:04;8.40;99.90
11617;DHT22;5864;52.998;9.068;2023-11-21T04:04:51;8.40;99.90
11617;DHT22;5864;52.998;9.068;2023-11-21T04:07:36;8.30;99.90
11617;DHT22;5864;52.998;9.068;2023-11-21T04:10:22;8.40;99.90
11617;DHT22;5864;52.998;9.068;2023-11-21T04:13:07;8.30;99.90
11617;DHT22;5864;52.998;9.068;2023-11-21T04:15:54;8.20;99.90
11617;DHT22;5864;52.998;9.068;2023-11-21T04:18:39;8.20;99.90
11617;DHT22;5864;52.998;9.068;2023-11-21T04:21:26;8.30;99.90
11617;DHT22;5864;52.998;9.068;2023-11-21T04:24:13;8.20;99.90
11617;DHT22;5864;52.998;9.068;2023-11-21T04:26:59;8.20;99.90
11617;DHT22;5864;52.998;9.068;2023-11-21T04:29:44;8.10;99.90
11617;DHT22;5864;52.998;9.068;2023-11-21T04:32:30;8.10;99.90
11617;DHT22;5864;52.998;9.068;2023-11-21T04:35:15;8.10;99.90
11617;DHT22;5864;52.998;9.068;2023-11-21T04:38:02;8.00;99.90
11617;DHT22;5864;52.998;9.068;2023-11-21T04:40:48;7.90;99.90
11617;DHT22;5864;52.998;9.068;2023-11-21T04:43:33;9.20;99.90
11617;DHT22;5864;52.998;9.068;2023-11-21T04:46:19;8.50;99.90
11617;DHT22;5864;52.998;9.068;2023-11-21T04:49:06;7.70;99.90
11617;DHT22;5864;52.998;9.068;2023-11-21T04:51:52;7.70;99.90
11617;DHT22;5864;52.998;9.068;2023-11-21T04:54:39;7.60;99.90
11617;DHT22;5864;52.998;9.068;2023-11-21T04:57:25;7.50;99.90
11617;DHT22;5864;52.998;9.068;2023-11-21T05:00:13;7.60;99.90
11617;DHT22;5864;52.998;9.068;2023-11-21T05:03:00;7.60;99.90
11617;DHT22;5864;52.998;9.068;2023-11-21T05:05:46;7.60;99.90
11617;DHT22;5864;52.998;9.068;2023-11-21T05:08:32;7.60;99.90
11617;DHT22;5864;52.998;9.068;2023-11-21T05:11:25;8.70;99.90
11617;DHT22;5864;52.998;9.068;2023-11-21T05:14:11;8.30;99.90
11617;DHT22;5864;52.998;9.068;2023-11-21T05:16:58;7.60;99.90
11617;DHT22;5864;52.998;9.068;2023-11-21T05:19:43;7.50;99.90
11617;DHT22;5864;52.998;9.068;2023-11-21T05:22:30;7.80;99.90
11617;DHT22;5864;52.998;9.068;2023-11-21T05:25:16;7.60;99.90
11617;DHT22;5864;52.998;9.068;2023-11-21T05:28:03;7.60;99.90
11617;DHT22;5864;52.998;9.068;2023-11-21T05:30:49;7.60;99.90
11617;DHT22;5864;52.998;9.068;2023-11-21T05:33:35;7.60;99.90
11617;DHT22;5864;52.998;9.068;2023-11-21T05:36:21;7.60;99.90
11617;DHT22;5864;52.998;9.068;2023-11-21T05:39:07;7.50;99.90
11617;DHT22;5864;52.998;9.068;2023-11-21T05:41:52;7.50;99.90
11617;DHT22;5864;52.998;9.068;2023-11-21T05:44:41;8.60;99.90
11617;DHT22;5864;52.998;9.068;2023-11-21T05:47:27;7.20;99.90
11617;DHT22;5864;52.998;9.068;2023-11-21T05:50:14;7.30;99.90
11617;DHT22;5864;52.998;9.068;2023-11-21T05:53:04;7.20;99.90
11617;DHT22;5864;52.998;9.068;2023-11-21T05:55:50;7.10;99.90
11617;DHT22;5864;52.998;9.068;2023-11-21T05:58:35;7.20;99.90
11617;DHT22;5864;52.998;9.068;2023-11-21T06:01:22;7.00;99.90
11617;DHT22;5864;52.998;9.068;2023-11-21T06:04:08;8.40;99.90
11617;DHT22;5864;52.998;9.068;2023-11-21T06:06:54;7.10;99.90
11617;DHT22;5864;52.998;9.068;2023-11-21T06:09:39;7.30;99.90
11617;DHT22;5864;52.998;9.068;2023-11-21T06:12:25;7.20;99.90
11617;DHT22;5864;52.998;9.068;2023-11-21T06:15:12;7.80;99.90
11617;DHT22;5864;52.998;9.068;2023-11-21T06:17:59;7.20;99.90
11617;DHT22;5864;52.998;9.068;2023-11-21T06:20:45;7.20;99.90
11617;DHT22;5864;52.998;9.068;2023-11-21T06:23:31;7.50;99.90
11617;DHT22;5864;52.998;9.068;2023-11-21T06:26:16;9.00;99.90
11617;DHT22;5864;52.998;9.068;2023-11-21T06:29:03;7.10;99.90
11617;DHT22;5864;52.998;9.068;2023-11-21T06:31:49;7.10;99.90
11617;DHT22;5864;52.998;9.068;2023-11-21T06:34:36;8.60;99.90
11617;DHT22;5864;52.998;9.068;2023-11-21T06:37:22;8.90;99.90
11617;DHT22;5864;52.998;9.068;2023-11-21T06:40:08;7.10;99.90
11617;DHT22;5864;52.998;9.068;2023-11-21T06:42:54;7.10;99.90
11617;DHT22;5864;52.998;9.068;2023-11-21T06:45:39;7.00;99.90
11617;DHT22;5864;52.998;9.068;2023-11-21T06:48:25;7.00;99.90
11617;DHT22;5864;52.998;9.068;2023-11-21T06:51:12;6.90;99.90
11617;DHT22;5864;52.998;9.068;2023-11-21T06:53:58;8.50;99.90
11617;DHT22;5864;52.998;9.068;2023-11-21T06:56:44;6.90;99.90
11617;DHT22;5864;52.998;9.068;2023-11-21T06:59:29;6.90;99.90
11617;DHT22;5864;52.998;9.068;2023-11-21T07:02:15;6.80;99.90
11617;DHT22;5864;52.998;9.068;2023-11-21T07:05:02;7.00;99.90
11617;DHT22;5864;52.998;9.068;2023-11-21T07:07:49;7.00;99.90
11617;DHT22;5864;52.998;9.068;2023-11-21T07:10:37;6.90;99.90
11617;DHT22;5864;52.998;9.068;2023-11-21T07:13:22;6.90;99.90
11617;DHT22;5864;52.998;9.068;2023-11-21T07:16:08;7.00;99.90
11617;DHT22;5864;52.998;9.068;2023-11-21T07:18:55;6.90;99.90
11617;DHT22;5864;52.998;9.068;2023-11-21T07:21:41;6.90;99.90
11617;DHT22;5864;52.998;9.068;2023-11-21T07:24:28;6.90;99.90
11617;DHT22;5864;52.998;9.068;2023-11-21T07:27:15;8.60;99.90
11617;DHT22;5864;52.998;9.068;2023-11-21T07:30:01;6.90;99.90
11617;DHT22;5864;52.998;9.068;2023-11-21T07:32:48;6.80;99.90
11617;DHT22;5864;52.998;9.068;2023-11-21T07:35:34;6.80;99.90
11617;DHT22;5864;52.998;9.068;2023-11-21T07:38:19;6.80;99.90
11617;DHT22;5864;52.998;9.068;2023-11-21T07:41:06;6.90;99.90
11617;DHT22;5864;52.998;9.068;2023-11-21T07:43:52;6.70;99.90
11617;DHT22;5864;52.998;9.068;2023-11-21T07:46:40;6.80;99.90
11617;DHT22;5864;52.998;9.068;2023-11-21T07:49:26;7.40;99.90
11617;DHT22;5864;52.998;9.068;2023-11-21T07:52:11;6.90;99.90
11617;DHT22;5864;52.998;9.068;2023-11-21T07:54:57;8.60;99.90
11617;DHT22;5864;52.998;9.068;2023-11-21T07:57:44;6.80;99.90
11617;DHT22;5864;52.998;9.068;2023-11-21T08:00:29;6.80;99.90
11617;DHT22;5864;52.998;9.068;2023-11-21T08:03:15;7.20;99.90
11617;DHT22;5864;52.998;9.068;2023-11-21T08:06:01;7.90;99.90
11617;DHT22;5864;52.998;9.068;2023-11-21T08:08:49;7.60;99.90
11617;DHT22;5864;52.998;9.068;2023-11-21T08:11:36;6.70;99.90
11617;DHT22;5864;52.998;9.068;2023-11-21T08:14:24;6.70;99.90
11617;DHT22;5864;52.998;9.068;2023-11-21T08:17:10;6.70;99.90
11617;DHT22;5864;52.998;9.068;2023-11-21T08:19:56;6.70;99.90
11617;DHT22;5864;52.998;9.068;2023-11-21T08:22:42;6.80;99.90
11617;DHT22;5864;52.998;9.068;2023-11-21T08:25:28;6.80;99.90
11617;DHT22;5864;52.998;9.068;2023-11-21T08:28:15;6.90;99.90
11617;DHT22;5864;52.998;9.068;2023-11-21T08:31:02;6.80;99.90
11617;DHT22;5864;52.998;9.068;2023-11-21T08:33:48;8.00;99.90
11617;DHT22;5864;52.998;9.068;2023-11-21T08:36:33;6.90;99.90
11617;DHT22;5864;52.998;9.068;2023-11-21T08:39:19;6.90;99.90
11617;DHT22;5864;52.998;9.068;2023-11-21T08:42:05;8.80;99.90
11617;DHT22;5864;52.998;9.068;2023-11-21T08:44:50;7.00;99.90
11617;DHT22;5864;52.998;9.068;2023-11-21T08:47:37;7.00;99.90
11617;DHT22;5864;52.998;9.068;2023-11-21T08:50:23;8.00;99.90
11617;DHT22;5864;52.998;9.068;2023-11-21T08:53:09;6.90;99.90
11617;DHT22;5864;52.998;9.068;2023-11-21T08:55:55;8.60;99.90
11617;DHT22;5864;52.998;9.068;2023-11-21T08:58:41;7.00;99.90
11617;DHT22;5864;52.998;9.068;2023-11-21T09:01:27;7.00;99.90
11617;DHT22;5864;52.998;9.068;2023-11-21T09:04:14;7.20;99.90
11617;DHT22;5864;52.998;9.068;2023-11-21T09:06:59;8.10;99.90
11617;DHT22;5864;52.998;9.068;2023-11-21T09:09:45;7.40;99.90
11617;DHT22;5864;52.998;9.068;2023-11-21T09:12:31;8.10;99.90
11617;DHT22;5864;52.998;9.068;2023-11-21T09:15:18;7.00;99.90
11617;DHT22;5864;52.998;9.068;2023-11-21T09:18:06;7.00;99.90
11617;DHT22;5864;52.998;9.068;2023-11-21T09:20:53;7.10;99.90
11617;DHT22;5864;52.998;9.068;2023-11-21T09:23:39;7.20;99.90
11617;DHT22;5864;52.998;9.068;2023-11-21T09:26:25;7.20;99.90
11617;DHT22;5864;52.998;9.068;2023-11-21T09:29:11;7.20;99.90
11617;DHT22;5864;52.998;9.068;2023-11-21T09:31:57;7.10;99.90
11617;DHT22;5864;52.998;9.068;2023-11-21T09:34:44;7.20;99.90
11617;DHT22;5864;52.998;9.068;2023-11-21T09:37:31;8.20;99.90
11617;DHT22;5864;52.998;9.068;2023-11-21T09:40:20;7.40;99.90
11617;DHT22;5864;52.998;9.068;2023-11-21T09:43:08;7.40;99.90
11617;DHT22;5864;52.998;9.068;2023-11-21T09:46:00;8.70;99.90
11617;DHT22;5864;52.998;9.068;2023-11-21T09:48:50;7.40;99.90
11617;DHT22;5864;52.998;9.068;2023-11-21T09:51:36;7.30;99.90
11617;DHT22;5864;52.998;9.068;2023-11-21T09:54:24;7.20;99.90
11617;DHT22;5864;52.998;9.068;2023-11-21T09:57:10;7.20;99.90
11617;DHT22;5864;52.998;9.068;2023-11-21T10:00:03;7.90;99.90
11617;DHT22;5864;52.998;9.068;2023-11-21T10:02:49;7.30;99.90
11617;DHT22;5864;52.998;9.068;2023-11-21T10:05:37;7.30;99.90
11617;DHT22;5864;52.998;9.068;2023-11-21T10:08:24;8.40;99.90
11617;DHT22;5864;52.998;9.068;2023-11-21T10:11:14;7.30;99.90
11617;DHT22;5864;52.998;9.068;2023-11-21T10:14:02;7.30;99.90
11617;DHT22;5864;52.998;9.068;2023-11-21T10:16:49;7.90;99.90
11617;DHT22;5864;52.998;9.068;2023-11-21T10:19:36;8.50;99.90
11617;DHT22;5864;52.998;9.068;2023-11-21T10:22:24;7.50;99.90
11617;DHT22;5864;52.998;9.068;2023-11-21T10:25:10;9.10;99.90
11617;DHT22;5864;52.998;9.068;2023-11-21T10:28:01;7.60;99.90
11617;DHT22;5864;52.998;9.068;2023-11-21T10:30:49;9.10;99.90
11617;DHT22;5864;52.998;9.068;2023-11-21T10:33:35;8.30;99.90
11617;DHT22;5864;52.998;9.068;2023-11-21T10:36:27;8.90;99.90
11617;DHT22;5864;52.998;9.068;2023-11-21T10:39:17;7.70;99.90
11617;DHT22;5864;52.998;9.068;2023-11-21T10:42:03;7.80;99.90
11617;DHT22;5864;52.998;9.068;2023-11-21T10:44:54;7.80;99.90
11617;DHT22;5864;52.998;9.068;2023-11-21T10:47:41;7.70;99.90
11617;DHT22;5864;52.998;9.068;2023-11-21T10:50:27;7.70;99.90
11617;DHT22;5864;52.998;9.068;2023-11-21T10:53:12;7.70;99.90
11617;DHT22;5864;52.998;9.068;2023-11-21T10:56:02;7.80;99.90
11617;DHT22;5864;52.998;9.068;2023-11-21T10:58:50;7.90;99.90
11617;DHT22;5864;52.998;9.068;2023-11-21T11:01:39;7.90;99.90
11617;DHT22;5864;52.998;9.068;2023-11-21T11:04:25;7.70;99.90
11617;DHT22;5864;52.998;9.068;2023-11-21T11:07:13;9.10;99.90
11617;DHT22;5864;52.998;9.068;2023-11-21T11:10:00;9.50;99.90
11617;DHT22;5864;52.998;9.068;2023-11-21T11:12:47;7.90;99.90
11617;DHT22;5864;52.998;9.068;2023-11-21T11:15:32;7.80;99.90
11617;DHT22;5864;52.998;9.068;2023-11-21T11:18:20;7.80;99.90
11617;DHT22;5864;52.998;9.068;2023-11-21T11:21:14;7.90;99.90
11617;DHT22;5864;52.998;9.068;2023-11-21T11:24:20;7.70;99.90
11617;DHT22;5864;52.998;9.068;2023-11-21T11:27:19;7.80;99.90
11617;DHT22;5864;52.998;9.068;2023-11-21T11:30:20;8.00;99.90
11617;DHT22;5864;52.998;9.068;2023-11-21T11:33:21;9.10;99.90
11617;DHT22;5864;52.998;9.068;2023-11-21T11:36:16;8.20;99.90
11617;DHT22;5864;52.998;9.068;2023-11-21T11:39:04;8.90;99.90
11617;DHT22;5864;52.998;9.068;2023-11-21T11:42:12;8.00;99.90
11617;DHT22;5864;52.998;9.068;2023-11-21T11:44:58;8.00;99.90
11617;DHT22;5864;52.998;9.068;2023-11-21T11:47:44;8.00;99.90
11617;DHT22;5864;52.998;9.068;2023-11-21T11:50:32;8.10;99.90
11617;DHT22;5864;52.998;9.068;2023-11-21T11:53:21;8.00;99.90
11617;DHT22;5864;52.998;9.068;2023-11-21T11:56:25;8.20;99.90
11617;DHT22;5864;52.998;9.068;2023-11-21T11:59:11;8.30;99.90
11617;DHT22;5864;52.998;9.068;2023-11-21T12:01:58;8.00;99.90
11617;DHT22;5864;52.998;9.068;2023-11-21T12:04:44;8.20;99.90
11617;DHT22;5864;52.998;9.068;2023-11-21T12:07:43;8.20;99.90
11617;DHT22;5864;52.998;9.068;2023-11-21T12:10:32;8.20;99.90
11617;DHT22;5864;52.998;9.068;2023-11-21T12:13:18;8.10;99.40
11617;DHT22;5864;52.998;9.068;2023-11-21T12:16:05;9.30;99.90
11617;DHT22;5864;52.998;9.068;2023-11-21T12:18:51;8.30;91.60
11617;DHT22;5864;52.998;9.068;2023-11-21T12:21:38;8.20;99.90
11617;DHT22;5864;52.998;9.068;2023-11-21T12:24:25;8.40;99.90
11617;DHT22;5864;52.998;9.068;2023-11-21T12:27:14;8.70;99.50
11617;DHT22;5864;52.998;9.068;2023-11-21T12:30:00;8.60;91.50
11617;DHT22;5864;52.998;9.068;2023-11-21T12:32:48;8.60;99.90
11617;DHT22;5864;52.998;9.068;2023-11-21T12:35:35;9.00;94.70
11617;DHT22;5864;52.998;9.068;2023-11-21T12:38:21;8.50;99.90
11617;DHT22;5864;52.998;9.068;2023-11-21T12:41:09;8.30;99.90
11617;DHT22;5864;52.998;9.068;2023-11-21T12:43:56;8.20;99.90
11617;DHT22;5864;52.998;9.068;2023-11-21T12:46:43;8.10;99.90
11617;DHT22;5864;52.998;9.068;2023-11-21T12:49:30;8.30;99.90
11617;DHT22;5864;52.998;9.068;2023-11-21T12:52:18;8.20;99.90
11617;DHT22;5864;52.998;9.068;2023-11-21T12:55:04;8.20;99.90
11617;DHT22;5864;52.998;9.068;2023-11-21T12:57:53;8.30;99.90
11617;DHT22;5864;52.998;9.068;2023-11-21T13:00:42;8.20;99.90
11617;DHT22;5864;52.998;9.068;2023-11-21T13:03:28;8.10;99.90
11617;DHT22;5864;52.998;9.068;2023-11-21T13:06:14;9.70;99.90
11617;DHT22;5864;52.998;9.068;2023-11-21T13:09:00;8.00;99.90
11617;DHT22;5864;52.998;9.068;2023-11-21T13:11:45;7.90;99.90
11617;DHT22;5864;52.998;9.068;2023-11-21T13:14:34;7.90;99.90
11617;DHT22;5864;52.998;9.068;2023-11-21T13:17:20;8.60;99.90
11617;DHT22;5864;52.998;9.068;2023-11-21T13:20:10;8.10;99.90
11617;DHT22;5864;52.998;9.068;2023-11-21T13:23:00;8.00;99.90
11617;DHT22;5864;52.998;9.068;2023-11-21T13:25:46;8.00;99.90
11617;DHT22;5864;52.998;9.068;2023-11-21T13:28:34;8.00;99.90
11617;DHT22;5864;52.998;9.068;2023-11-21T13:31:19;8.10;99.90
11617;DHT22;5864;52.998;9.068;2023-11-21T13:34:12;8.10;99.90
11617;DHT22;5864;52.998;9.068;2023-11-21T13:36:58;8.00;99.90
11617;DHT22;5864;52.998;9.068;2023-11-21T13:39:45;8.00;99.90
11617;DHT22;5864;52.998;9.068;2023-11-21T13:42:34;8.00;99.90
11617;DHT22;5864;52.998;9.068;2023-11-21T13:45:23;7.90;99.90
11617;DHT22;5864;52.998;9.068;2023-11-21T13:48:10;9.40;99.90
11617;DHT22;5864;52.998;9.068;2023-11-21T13:50:58;7.90;99.90
11617;DHT22;5864;52.998;9.068;2023-11-21T13:53:52;7.90;99.90
11617;DHT22;5864;52.998;9.068;2023-11-21T13:56:41;7.90;98.60
11617;DHT22;5864;52.998;9.068;2023-11-21T13:59:28;8.00;99.90
11617;DHT22;5864;52.998;9.068;2023-11-21T14:02:16;9.20;98.60
11617;DHT22;5864;52.998;9.068;2023-11-21T14:05:02;8.10;99.90
11617;DHT22;5864;52.998;9.068;2023-11-21T14:07:55;8.20;87.70
11617;DHT22;5864;52.998;9.068;2023-11-21T14:10:46;8.10;94.20
11617;DHT22;5864;52.998;9.068;2023-11-21T14:13:35;8.10;85.50
11617;DHT22;5864;52.998;9.068;2023-11-21T14:16:20;8.20;91.60
11617;DHT22;5864;52.998;9.068;2023-11-21T14:19:07;8.30;88.30
11617;DHT22;5864;52.998;9.068;2023-11-21T14:22:00;8.30;68.00
11617;DHT22;5864;52.998;9.068;2023-11-21T14:24:46;8.30;74.90
11617;DHT22;5864;52.998;9.068;2023-11-21T14:27:34;8.10;81.30
11617;DHT22;5864;52.998;9.068;2023-11-21T14:30:20;8.10;99.90
11617;DHT22;5864;52.998;9.068;2023-11-21T14:33:06;8.20;99.90
11617;DHT22;5864;52.998;9.068;2023-11-21T14:35:52;9.40;99.90
11617;DHT22;5864;52.998;9.068;2023-11-21T14:38:38;8.00;99.90
11617;DHT22;5864;52.998;9.068;2023-11-21T14:41:26;7.70;99.90
11617;DHT22;5864;52.998;9.068;2023-11-21T14:44:13;7.70;99.90
11617;DHT22;5864;52.998;9.068;2023-11-21T14:47:00;7.60;99.90
11617;DHT22;5864;52.998;9.068;2023-11-21T14:49:50;7.60;99.90
11617;DHT22;5864;52.998;9.068;2023-11-21T14:52:41;7.70;99.90
11617;DHT22;5864;52.998;9.068;2023-11-21T14:55:39;9.40;99.90
11617;DHT22;5864;52.998;9.068;2023-11-21T14:58:40;7.80;99.90
11617;DHT22;5864;52.998;9.068;2023-11-21T15:01:27;7.60;99.90
11617;DHT22;5864;52.998;9.068;2023-11-21T15:04:28;7.60;99.90
11617;DHT22;5864;52.998;9.068;2023-11-21T15:07:20;8.20;99.90
11617;DHT22;5864;52.998;9.068;2023-11-21T15:10:05;7.50;99.90
11617;DHT22;5864;52.998;9.068;2023-11-21T15:12:55;7.40;99.90
11617;DHT22;5864;52.998;9.068;2023-11-21T15:15:41;8.30;99.90
11617;DHT22;5864;52.998;9.068;2023-11-21T15:18:27;7.40;99.90
11617;DHT22;5864;52.998;9.068;2023-11-21T15:21:13;7.30;99.90
11617;DHT22;5864;52.998;9.068;2023-11-21T15:23:59;7.30;99.90
11617;DHT22;5864;52.998;9.068;2023-11-21T15:26:44;8.40;99.90
11617;DHT22;5864;52.998;9.068;2023-11-21T15:29:30;7.30;99.90
11617;DHT22;5864;52.998;9.068;2023-11-21T15:32:17;7.30;99.90
11617;DHT22;5864;52.998;9.068;2023-11-21T15:35:03;7.20;99.90
11617;DHT22;5864;52.998;9.068;2023-11-21T15:37:49;7.20;99.90
11617;DHT22;5864;52.998;9.068;2023-11-21T15:40:35;7.10;99.90
11617;DHT22;5864;52.998;9.068;2023-11-21T15:43:21;7.10;99.90
11617;DHT22;5864;52.998;9.068;2023-11-21T15:46:07;7.10;99.90
11617;DHT22;5864;52.998;9.068;2023-11-21T15:48:54;7.10;99.90
11617;DHT22;5864;52.998;9.068;2023-11-21T15:51:42;8.50;99.90
11617;DHT22;5864;52.998;9.068;2023-11-21T15:54:31;7.00;99.90
11617;DHT22;5864;52.998;9.068;2023-11-21T15:57:18;6.90;99.90
11617;DHT22;5864;52.998;9.068;2023-11-21T16:00:07;6.80;99.90
11617;DHT22;5864;52.998;9.068;2023-11-21T16:03:00;6.80;99.90
11617;DHT22;5864;52.998;9.068;2023-11-21T16:05:47;8.30;99.90
11617;DHT22;5864;52.998;9.068;2023-11-21T16:08:33;6.70;99.90
11617;DHT22;5864;52.998;9.068;2023-11-21T16:11:20;6.70;99.90
11617;DHT22;5864;52.998;9.068;2023-11-21T16:14:06;6.80;99.90
11617;DHT22;5864;52.998;9.068;2023-11-21T16:16:54;7.90;99.90
11617;DHT22;5864;52.998;9.068;2023-11-21T16:19:40;7.20;99.90
11617;DHT22;5864;52.998;9.068;2023-11-21T16:22:27;6.70;99.90
11617;DHT22;5864;52.998;9.068;2023-11-21T16:25:13;6.60;99.90
11617;DHT22;5864;52.998;9.068;2023-11-21T16:27:59;6.60;99.90
11617;DHT22;5864;52.998;9.068;2023-11-21T16:30:49;7.80;99.90
11617;DHT22;5864;52.998;9.068;2023-11-21T16:33:36;6.60;99.90
11617;DHT22;5864;52.998;9.068;2023-11-21T16:36:22;8.20;99.90
11617;DHT22;5864;52.998;9.068;2023-11-21T16:39:10;6.50;99.90
11617;DHT22;5864;52.998;9.068;2023-11-21T16:41:56;6.50;99.90
11617;DHT22;5864;52.998;9.068;2023-11-21T16:44:42;6.50;99.90
11617;DHT22;5864;52.998;9.068;2023-11-21T16:47:28;6.60;99.90
11617;DHT22;5864;52.998;9.068;2023-11-21T16:50:13;6.60;99.90
11617;DHT22;5864;52.998;9.068;2023-11-21T16:52:59;6.60;99.90
11617;DHT22;5864;52.998;9.068;2023-11-21T16:55:46;6.50;99.90
11617;DHT22;5864;52.998;9.068;2023-11-21T16:58:31;6.50;99.90
11617;DHT22;5864;52.998;9.068;2023-11-21T17:01:17;8.40;99.90
11617;DHT22;5864;52.998;9.068;2023-11-21T17:04:04;6.60;99.90
11617;DHT22;5864;52.998;9.068;2023-11-21T17:06:52;6.50;99.90
11617;DHT22;5864;52.998;9.068;2023-11-21T17:09:39;6.40;99.90
11617;DHT22;5864;52.998;9.068;2023-11-21T17:12:25;6.40;99.90
11617;DHT22;5864;52.998;9.068;2023-11-21T17:15:11;8.30;99.90
11617;DHT22;5864;52.998;9.068;2023-11-21T17:17:57;6.40;99.90
11617;DHT22;5864;52.998;9.068;2023-11-21T17:20:45;7.50;99.90
11617;DHT22;5864;52.998;9.068;2023-11-21T17:23:32;6.30;99.90
11617;DHT22;5864;52.998;9.068;2023-11-21T17:26:18;6.40;99.90
11617;DHT22;5864;52.998;9.068;2023-11-21T17:29:05;6.40;99.90
11617;DHT22;5864;52.998;9.068;2023-11-21T17:31:51;7.70;99.90
11617;DHT22;5864;52.998;9.068;2023-11-21T17:34:38;6.30;99.90
11617;DHT22;5864;52.998;9.068;2023-11-21T17:37:23;6.60;99.90
11617;DHT22;5864;52.998;9.068;2023-11-21T17:40:09;6.30;99.90
11617;DHT22;5864;52.998;9.068;2023-11-21T17:42:56;6.40;99.90
11617;DHT22;5864;52.998;9.068;2023-11-21T17:45:43;6.30;99.90
11617;DHT22;5864;52.998;9.068;2023-11-21T17:48:31;8.00;99.90
11617;DHT22;5864;52.998;9.068;2023-11-21T17:51:17;6.30;99.90
11617;DHT22;5864;52.998;9.068;2023-11-21T17:54:03;6.50;99.90
11617;DHT22;5864;52.998;9.068;2023-11-21T17:56:49;6.30;99.90
11617;DHT22;5864;52.998;9.068;2023-11-21T17:59:37;6.40;99.90
11617;DHT22;5864;52.998;9.068;2023-11-21T18:02:24;7.00;99.90
11617;DHT22;5864;52.998;9.068;2023-11-21T18:05:10;6.50;99.90
11617;DHT22;5864;52.998;9.068;2023-11-21T18:07:57;6.50;99.90
11617;DHT22;5864;52.998;9.068;2023-11-21T18:10:43;6.50;99.90